Destruction Bay, Canada
Current Conditions -  °F | °C
As of 8:00 AM on Thursday 30 Oct 2014 (Local Time) from CYDB Reporting Station
Light Snow Light Snow  
Wind Chill:   Ceiling: 1500
Heat Index: 18°   Visibility: 2mi
Dew Point: 16°   Wind: 10mph
Humidity: 93%   Direction: 300°WNW
Pressure: 29.49"   Gusts: NA
Location:  61.25°N, 138.8°W
Report Text: CYDB 301500Z 30009KT 2SM -SN BKN015 OVC035 M08/M09 A2949 RMK SC5SC3 SLP039
Loading
Personal Weather Stations






























Interactive Weather Map
Tropical Storm Tracking
New forecast layout! Learn more

10-Day Weather Forecast

Advertisements
Track Severe Weather on mobile